sensor_id;sensor_type;location;lat;lon;timestamp;temperature;humidity
52543;DHT22;38449;52.696;6.186;2023-06-10T00:00:44;19.20;99.20
52543;DHT22;38449;52.696;6.186;2023-06-10T00:03:10;19.10;99.50
52543;DHT22;38449;52.696;6.186;2023-06-10T00:05:37;19.10;99.20
52543;DHT22;38449;52.696;6.186;2023-06-10T00:08:05;19.10;99.30
52543;DHT22;38449;52.696;6.186;2023-06-10T00:10:37;19.00;99.20
52543;DHT22;38449;52.696;6.186;2023-06-10T00:13:05;19.10;99.20
52543;DHT22;38449;52.696;6.186;2023-06-10T00:15:34;19.00;99.10
52543;DHT22;38449;52.696;6.186;2023-06-10T00:18:02;19.00;99.20
52543;DHT22;38449;52.696;6.186;2023-06-10T00:20:30;19.00;99.00
52543;DHT22;38449;52.696;6.186;2023-06-10T00:22:58;19.00;99.00
52543;DHT22;38449;52.696;6.186;2023-06-10T00:25:27;19.00;99.00
52543;DHT22;38449;52.696;6.186;2023-06-10T00:27:53;18.90;99.00
52543;DHT22;38449;52.696;6.186;2023-06-10T00:30:19;18.80;99.00
52543;DHT22;38449;52.696;6.186;2023-06-10T00:32:46;18.80;98.90
52543;DHT22;38449;52.696;6.186;2023-06-10T00:35:12;18.90;98.90
52543;DHT22;38449;52.696;6.186;2023-06-10T00:37:39;18.80;98.90
52543;DHT22;38449;52.696;6.186;2023-06-10T00:40:06;18.80;98.90
52543;DHT22;38449;52.696;6.186;2023-06-10T00:42:34;18.70;99.00
52543;DHT22;38449;52.696;6.186;2023-06-10T00:45:00;18.70;99.00
52543;DHT22;38449;52.696;6.186;2023-06-10T00:47:27;18.70;99.00
52543;DHT22;38449;52.696;6.186;2023-06-10T00:49:54;18.70;99.00
52543;DHT22;38449;52.696;6.186;2023-06-10T00:52:22;18.60;99.00
52543;DHT22;38449;52.696;6.186;2023-06-10T00:54:50;18.50;99.00
52543;DHT22;38449;52.696;6.186;2023-06-10T00:57:16;18.60;99.10
52543;DHT22;38449;52.696;6.186;2023-06-10T00:59:47;18.50;99.20
52543;DHT22;38449;52.696;6.186;2023-06-10T01:02:14;18.50;99.30
52543;DHT22;38449;52.696;6.186;2023-06-10T01:04:40;18.40;99.40
52543;DHT22;38449;52.696;6.186;2023-06-10T01:07:24;18.40;99.50
52543;DHT22;38449;52.696;6.186;2023-06-10T01:15:05;18.20;99.90
52543;DHT22;38449;52.696;6.186;2023-06-10T01:17:32;18.20;99.80
52543;DHT22;38449;52.696;6.186;2023-06-10T01:19:59;18.20;99.90
52543;DHT22;38449;52.696;6.186;2023-06-10T01:22:26;18.20;99.90
52543;DHT22;38449;52.696;6.186;2023-06-10T01:24:58;18.10;99.90
52543;DHT22;38449;52.696;6.186;2023-06-10T01:27:29;18.10;99.90
52543;DHT22;38449;52.696;6.186;2023-06-10T01:30:03;18.00;99.90
52543;DHT22;38449;52.696;6.186;2023-06-10T01:32:44;18.00;99.90
52543;DHT22;38449;52.696;6.186;2023-06-10T01:35:12;18.00;99.90
52543;DHT22;38449;52.696;6.186;2023-06-10T01:37:39;18.00;99.90
52543;DHT22;38449;52.696;6.186;2023-06-10T01:40:06;17.90;99.90
52543;DHT22;38449;52.696;6.186;2023-06-10T01:42:33;17.90;99.90
52543;DHT22;38449;52.696;6.186;2023-06-10T01:44:59;17.90;99.90
52543;DHT22;38449;52.696;6.186;2023-06-10T01:47:26;17.90;99.90
52543;DHT22;38449;52.696;6.186;2023-06-10T01:49:52;17.90;99.90
52543;DHT22;38449;52.696;6.186;2023-06-10T01:52:18;17.80;99.90
52543;DHT22;38449;52.696;6.186;2023-06-10T01:54:44;17.80;99.90
52543;DHT22;38449;52.696;6.186;2023-06-10T01:57:11;17.70;99.90
52543;DHT22;38449;52.696;6.186;2023-06-10T01:59:37;17.70;99.90
52543;DHT22;38449;52.696;6.186;2023-06-10T02:02:04;17.70;99.90
52543;DHT22;38449;52.696;6.186;2023-06-10T02:04:31;17.70;99.90
52543;DHT22;38449;52.696;6.186;2023-06-10T02:06:58;17.60;99.90
52543;DHT22;38449;52.696;6.186;2023-06-10T02:09:24;17.60;99.90
52543;DHT22;38449;52.696;6.186;2023-06-10T02:11:50;17.50;99.90
52543;DHT22;38449;52.696;6.186;2023-06-10T02:14:17;17.50;99.90
52543;DHT22;38449;52.696;6.186;2023-06-10T02:16:43;17.40;99.90
52543;DHT22;38449;52.696;6.186;2023-06-10T02:19:11;17.40;99.90
52543;DHT22;38449;52.696;6.186;2023-06-10T02:21:38;17.50;99.90
52543;DHT22;38449;52.696;6.186;2023-06-10T02:24:05;17.40;99.90
52543;DHT22;38449;52.696;6.186;2023-06-10T02:26:31;17.40;99.90
52543;DHT22;38449;52.696;6.186;2023-06-10T02:28:58;17.40;99.90
52543;DHT22;38449;52.696;6.186;2023-06-10T02:31:24;17.30;99.90
52543;DHT22;38449;52.696;6.186;2023-06-10T02:33:51;17.30;99.90
52543;DHT22;38449;52.696;6.186;2023-06-10T02:36:17;17.20;99.90
52543;DHT22;38449;52.696;6.186;2023-06-10T02:38:43;17.20;99.90
52543;DHT22;38449;52.696;6.186;2023-06-10T02:41:10;17.10;99.90
52543;DHT22;38449;52.696;6.186;2023-06-10T02:43:36;17.10;99.90
52543;DHT22;38449;52.696;6.186;2023-06-10T02:46:02;17.10;99.90
52543;DHT22;38449;52.696;6.186;2023-06-10T02:48:28;17.10;99.90
52543;DHT22;38449;52.696;6.186;2023-06-10T02:50:54;17.00;99.90
52543;DHT22;38449;52.696;6.186;2023-06-10T02:53:22;17.00;99.90
52543;DHT22;38449;52.696;6.186;2023-06-10T02:55:48;16.90;99.90
52543;DHT22;38449;52.696;6.186;2023-06-10T02:58:14;16.90;99.90
52543;DHT22;38449;52.696;6.186;2023-06-10T03:00:41;16.90;99.90
52543;DHT22;38449;52.696;6.186;2023-06-10T03:03:08;16.80;99.90
52543;DHT22;38449;52.696;6.186;2023-06-10T03:05:36;16.80;99.90
52543;DHT22;38449;52.696;6.186;2023-06-10T03:08:02;16.80;99.90
52543;DHT22;38449;52.696;6.186;2023-06-10T03:10:29;16.80;99.90
52543;DHT22;38449;52.696;6.186;2023-06-10T03:12:55;16.80;99.90
52543;DHT22;38449;52.696;6.186;2023-06-10T03:15:21;16.70;99.90
52543;DHT22;38449;52.696;6.186;2023-06-10T03:17:48;16.70;99.90
52543;DHT22;38449;52.696;6.186;2023-06-10T03:20:14;16.70;99.90
52543;DHT22;38449;52.696;6.186;2023-06-10T03:22:41;16.60;99.90
52543;DHT22;38449;52.696;6.186;2023-06-10T03:25:08;16.60;99.90
52543;DHT22;38449;52.696;6.186;2023-06-10T03:27:40;16.60;99.90
52543;DHT22;38449;52.696;6.186;2023-06-10T03:30:07;16.50;99.90
52543;DHT22;38449;52.696;6.186;2023-06-10T03:32:33;16.60;99.90
52543;DHT22;38449;52.696;6.186;2023-06-10T03:34:59;16.60;99.90
52543;DHT22;38449;52.696;6.186;2023-06-10T03:37:25;16.50;99.90
52543;DHT22;38449;52.696;6.186;2023-06-10T03:39:52;16.50;99.90
52543;DHT22;38449;52.696;6.186;2023-06-10T03:42:18;16.50;99.90
52543;DHT22;38449;52.696;6.186;2023-06-10T03:44:44;16.50;99.90
52543;DHT22;38449;52.696;6.186;2023-06-10T03:47:11;16.50;99.90
52543;DHT22;38449;52.696;6.186;2023-06-10T03:49:38;16.50;99.90
52543;DHT22;38449;52.696;6.186;2023-06-10T03:52:06;16.40;99.90
52543;DHT22;38449;52.696;6.186;2023-06-10T03:54:33;16.50;99.90
52543;DHT22;38449;52.696;6.186;2023-06-10T03:57:00;16.50;99.90
52543;DHT22;38449;52.696;6.186;2023-06-10T03:59:27;16.50;99.90
52543;DHT22;38449;52.696;6.186;2023-06-10T04:01:54;16.50;99.90
52543;DHT22;38449;52.696;6.186;2023-06-10T04:04:20;16.50;99.90
52543;DHT22;38449;52.696;6.186;2023-06-10T04:06:47;16.50;99.90
52543;DHT22;38449;52.696;6.186;2023-06-10T04:09:14;16.50;99.90
52543;DHT22;38449;52.696;6.186;2023-06-10T04:11:42;16.50;99.90
52543;DHT22;38449;52.696;6.186;2023-06-10T04:14:08;16.60;99.90
52543;DHT22;38449;52.696;6.186;2023-06-10T04:16:34;16.60;99.90
52543;DHT22;38449;52.696;6.186;2023-06-10T04:19:01;16.60;99.90
52543;DHT22;38449;52.696;6.186;2023-06-10T04:21:27;16.60;99.90
52543;DHT22;38449;52.696;6.186;2023-06-10T04:23:53;16.60;99.90
52543;DHT22;38449;52.696;6.186;2023-06-10T04:26:20;16.60;99.90
52543;DHT22;38449;52.696;6.186;2023-06-10T04:28:46;16.60;99.90
52543;DHT22;38449;52.696;6.186;2023-06-10T04:31:12;16.70;99.90
52543;DHT22;38449;52.696;6.186;2023-06-10T04:33:39;16.70;99.90
52543;DHT22;38449;52.696;6.186;2023-06-10T04:36:05;16.80;99.90
52543;DHT22;38449;52.696;6.186;2023-06-10T04:38:32;16.80;99.90
52543;DHT22;38449;52.696;6.186;2023-06-10T04:40:59;16.80;99.90
52543;DHT22;38449;52.696;6.186;2023-06-10T04:43:25;16.80;99.90
52543;DHT22;38449;52.696;6.186;2023-06-10T04:45:53;16.90;99.90
52543;DHT22;38449;52.696;6.186;2023-06-10T04:48:19;16.80;99.90
52543;DHT22;38449;52.696;6.186;2023-06-10T04:50:45;16.90;99.90
52543;DHT22;38449;52.696;6.186;2023-06-10T04:53:12;16.90;99.90
52543;DHT22;38449;52.696;6.186;2023-06-10T04:55:38;17.70;99.90
52543;DHT22;38449;52.696;6.186;2023-06-10T04:58:04;18.60;99.90
52543;DHT22;38449;52.696;6.186;2023-06-10T05:00:31;19.50;99.90
52543;DHT22;38449;52.696;6.186;2023-06-10T05:02:57;20.30;99.90
52543;DHT22;38449;52.696;6.186;2023-06-10T05:05:23;20.80;99.90
52543;DHT22;38449;52.696;6.186;2023-06-10T05:07:49;21.20;99.90
52543;DHT22;38449;52.696;6.186;2023-06-10T05:10:15;21.50;99.90
52543;DHT22;38449;52.696;6.186;2023-06-10T05:12:42;21.80;99.80
52543;DHT22;38449;52.696;6.186;2023-06-10T05:15:08;22.00;99.70
52543;DHT22;38449;52.696;6.186;2023-06-10T05:17:35;22.20;99.10
52543;DHT22;38449;52.696;6.186;2023-06-10T05:20:02;22.30;99.40
52543;DHT22;38449;52.696;6.186;2023-06-10T05:22:29;22.70;98.60
52543;DHT22;38449;52.696;6.186;2023-06-10T05:24:55;22.80;98.40
52543;DHT22;38449;52.696;6.186;2023-06-10T05:27:22;22.70;98.30
52543;DHT22;38449;52.696;6.186;2023-06-10T05:29:48;22.70;98.40
52543;DHT22;38449;52.696;6.186;2023-06-10T05:32:14;22.90;98.30
52543;DHT22;38449;52.696;6.186;2023-06-10T05:34:40;23.00;98.10
52543;DHT22;38449;52.696;6.186;2023-06-10T05:37:07;22.90;97.90
52543;DHT22;38449;52.696;6.186;2023-06-10T05:39:35;23.30;97.90
52543;DHT22;38449;52.696;6.186;2023-06-10T05:42:05;23.60;97.70
52543;DHT22;38449;52.696;6.186;2023-06-10T05:44:33;23.90;97.40
52543;DHT22;38449;52.696;6.186;2023-06-10T05:46:59;24.10;97.30
52543;DHT22;38449;52.696;6.186;2023-06-10T05:49:25;24.40;97.00
52543;DHT22;38449;52.696;6.186;2023-06-10T05:51:52;24.50;96.60
52543;DHT22;38449;52.696;6.186;2023-06-10T05:54:19;24.00;96.70
52543;DHT22;38449;52.696;6.186;2023-06-10T05:56:45;24.10;96.80
52543;DHT22;38449;52.696;6.186;2023-06-10T05:59:11;24.30;96.50
52543;DHT22;38449;52.696;6.186;2023-06-10T06:01:37;24.10;96.60
52543;DHT22;38449;52.696;6.186;2023-06-10T06:04:04;24.60;96.30
52543;DHT22;38449;52.696;6.186;2023-06-10T06:06:30;24.60;96.50
52543;DHT22;38449;52.696;6.186;2023-06-10T06:08:56;24.70;96.20
52543;DHT22;38449;52.696;6.186;2023-06-10T06:11:22;25.00;96.10
52543;DHT22;38449;52.696;6.186;2023-06-10T06:13:49;25.00;96.10
52543;DHT22;38449;52.696;6.186;2023-06-10T06:16:15;25.10;96.00
52543;DHT22;38449;52.696;6.186;2023-06-10T06:18:41;25.10;95.80
52543;DHT22;38449;52.696;6.186;2023-06-10T06:21:07;25.20;95.60
52543;DHT22;38449;52.696;6.186;2023-06-10T06:23:34;25.60;95.30
52543;DHT22;38449;52.696;6.186;2023-06-10T06:26:00;25.60;95.20
52543;DHT22;38449;52.696;6.186;2023-06-10T06:28:26;25.50;95.20
52543;DHT22;38449;52.696;6.186;2023-06-10T06:30:56;25.60;95.30
52543;DHT22;38449;52.696;6.186;2023-06-10T06:33:22;25.30;95.10
52543;DHT22;38449;52.696;6.186;2023-06-10T06:35:48;25.20;95.40
52543;DHT22;38449;52.696;6.186;2023-06-10T06:38:14;25.30;95.40
52543;DHT22;38449;52.696;6.186;2023-06-10T06:40:40;25.30;95.40
52543;DHT22;38449;52.696;6.186;2023-06-10T06:43:07;26.00;95.40
52543;DHT22;38449;52.696;6.186;2023-06-10T06:45:33;25.90;94.60
52543;DHT22;38449;52.696;6.186;2023-06-10T06:48:00;25.70;94.80
52543;DHT22;38449;52.696;6.186;2023-06-10T06:50:26;25.50;95.20
52543;DHT22;38449;52.696;6.186;2023-06-10T06:52:52;25.90;95.20
52543;DHT22;38449;52.696;6.186;2023-06-10T06:55:18;26.20;94.70
52543;DHT22;38449;52.696;6.186;2023-06-10T06:57:45;25.90;94.60
52543;DHT22;38449;52.696;6.186;2023-06-10T07:00:11;25.60;94.60
52543;DHT22;38449;52.696;6.186;2023-06-10T07:02:38;25.00;94.90
52543;DHT22;38449;52.696;6.186;2023-06-10T07:05:04;24.50;95.50
52543;DHT22;38449;52.696;6.186;2023-06-10T07:07:31;24.10;95.90
52543;DHT22;38449;52.696;6.186;2023-06-10T07:09:58;24.00;96.00
52543;DHT22;38449;52.696;6.186;2023-06-10T07:12:24;24.00;96.10
52543;DHT22;38449;52.696;6.186;2023-06-10T07:14:51;24.20;96.20
52543;DHT22;38449;52.696;6.186;2023-06-10T07:17:17;24.10;96.20
52543;DHT22;38449;52.696;6.186;2023-06-10T07:19:46;23.90;96.20
52543;DHT22;38449;52.696;6.186;2023-06-10T07:22:13;23.60;96.20
52543;DHT22;38449;52.696;6.186;2023-06-10T07:24:40;23.50;96.60
52543;DHT22;38449;52.696;6.186;2023-06-10T07:27:06;23.60;96.70
52543;DHT22;38449;52.696;6.186;2023-06-10T07:29:33;23.70;96.60
52543;DHT22;38449;52.696;6.186;2023-06-10T07:31:59;24.00;96.40
52543;DHT22;38449;52.696;6.186;2023-06-10T07:34:25;24.00;96.00
52543;DHT22;38449;52.696;6.186;2023-06-10T07:36:51;23.90;96.00
52543;DHT22;38449;52.696;6.186;2023-06-10T07:39:18;24.00;95.90
52543;DHT22;38449;52.696;6.186;2023-06-10T07:41:44;23.90;95.90
52543;DHT22;38449;52.696;6.186;2023-06-10T07:44:10;23.90;96.10
52543;DHT22;38449;52.696;6.186;2023-06-10T07:46:36;24.00;96.30
52543;DHT22;38449;52.696;6.186;2023-06-10T07:49:03;24.00;96.40
52543;DHT22;38449;52.696;6.186;2023-06-10T07:51:29;23.90;96.10
52543;DHT22;38449;52.696;6.186;2023-06-10T07:53:55;23.80;96.10
52543;DHT22;38449;52.696;6.186;2023-06-10T07:56:21;24.10;96.00
52543;DHT22;38449;52.696;6.186;2023-06-10T07:58:48;24.10;95.90
52543;DHT22;38449;52.696;6.186;2023-06-10T08:01:14;24.40;96.00
52543;DHT22;38449;52.696;6.186;2023-06-10T08:03:41;24.50;95.90
52543;DHT22;38449;52.696;6.186;2023-06-10T08:06:07;24.50;95.80
52543;DHT22;38449;52.696;6.186;2023-06-10T08:08:33;24.40;95.90
52543;DHT22;38449;52.696;6.186;2023-06-10T08:11:00;24.40;96.20
52543;DHT22;38449;52.696;6.186;2023-06-10T08:13:26;24.40;95.90
52543;DHT22;38449;52.696;6.186;2023-06-10T08:15:53;24.40;95.60
52543;DHT22;38449;52.696;6.186;2023-06-10T08:18:21;24.60;95.60
52543;DHT22;38449;52.696;6.186;2023-06-10T08:20:47;24.80;95.50
52543;DHT22;38449;52.696;6.186;2023-06-10T08:23:14;24.90;95.40
52543;DHT22;38449;52.696;6.186;2023-06-10T08:25:40;25.00;95.40
52543;DHT22;38449;52.696;6.186;2023-06-10T08:28:06;25.00;94.80
52543;DHT22;38449;52.696;6.186;2023-06-10T08:30:33;25.00;94.90
52543;DHT22;38449;52.696;6.186;2023-06-10T08:32:59;25.10;94.70
52543;DHT22;38449;52.696;6.186;2023-06-10T08:35:26;25.10;95.00
52543;DHT22;38449;52.696;6.186;2023-06-10T08:37:52;25.10;95.10
52543;DHT22;38449;52.696;6.186;2023-06-10T08:40:18;25.20;95.00
52543;DHT22;38449;52.696;6.186;2023-06-10T08:43:06;25.30;94.40
52543;DHT22;38449;52.696;6.186;2023-06-10T08:45:36;25.30;93.70
52543;DHT22;38449;52.696;6.186;2023-06-10T08:48:03;25.50;94.40
52543;DHT22;38449;52.696;6.186;2023-06-10T08:50:37;25.60;94.20
52543;DHT22;38449;52.696;6.186;2023-06-10T08:53:07;25.60;94.00
52543;DHT22;38449;52.696;6.186;2023-06-10T08:55:37;25.40;93.80
52543;DHT22;38449;52.696;6.186;2023-06-10T08:58:04;25.30;93.50
52543;DHT22;38449;52.696;6.186;2023-06-10T09:00:31;25.20;93.90
52543;DHT22;38449;52.696;6.186;2023-06-10T09:02:59;25.10;94.40
52543;DHT22;38449;52.696;6.186;2023-06-10T09:05:28;25.40;94.40
52543;DHT22;38449;52.696;6.186;2023-06-10T09:07:57;25.40;93.80
52543;DHT22;38449;52.696;6.186;2023-06-10T09:10:23;25.60;93.70
52543;DHT22;38449;52.696;6.186;2023-06-10T09:12:49;25.70;93.60
52543;DHT22;38449;52.696;6.186;2023-06-10T09:15:16;25.70;93.80
52543;DHT22;38449;52.696;6.186;2023-06-10T09:17:43;25.70;93.80
52543;DHT22;38449;52.696;6.186;2023-06-10T09:20:11;25.90;93.60
52543;DHT22;38449;52.696;6.186;2023-06-10T09:22:37;25.90;93.60
52543;DHT22;38449;52.696;6.186;2023-06-10T09:25:06;26.10;93.50
52543;DHT22;38449;52.696;6.186;2023-06-10T09:27:50;26.20;93.60
52543;DHT22;38449;52.696;6.186;2023-06-10T09:30:36;26.10;93.40
52543;DHT22;38449;52.696;6.186;2023-06-10T09:33:12;26.20;93.80
52543;DHT22;38449;52.696;6.186;2023-06-10T09:35:46;26.20;93.80
52543;DHT22;38449;52.696;6.186;2023-06-10T09:38:20;26.20;93.90
52543;DHT22;38449;52.696;6.186;2023-06-10T09:40:54;26.30;93.20
52543;DHT22;38449;52.696;6.186;2023-06-10T09:43:21;26.10;93.10
52543;DHT22;38449;52.696;6.186;2023-06-10T09:45:51;26.20;93.60
52543;DHT22;38449;52.696;6.186;2023-06-10T09:48:22;26.30;93.50
52543;DHT22;38449;52.696;6.186;2023-06-10T09:50:49;26.40;93.50
52543;DHT22;38449;52.696;6.186;2023-06-10T09:53:17;26.60;93.40
52543;DHT22;38449;52.696;6.186;2023-06-10T09:55:44;26.70;93.00
52543;DHT22;38449;52.696;6.186;2023-06-10T09:58:10;26.60;92.70
52543;DHT22;38449;52.696;6.186;2023-06-10T10:00:36;26.60;92.60
52543;DHT22;38449;52.696;6.186;2023-06-10T10:03:02;26.60;92.70
52543;DHT22;38449;52.696;6.186;2023-06-10T10:05:29;26.70;92.70
52543;DHT22;38449;52.696;6.186;2023-06-10T10:07:56;26.70;92.40
52543;DHT22;38449;52.696;6.186;2023-06-10T10:10:23;26.60;92.20
52543;DHT22;38449;52.696;6.186;2023-06-10T10:12:55;26.60;92.20
52543;DHT22;38449;52.696;6.186;2023-06-10T10:15:24;26.80;92.10
52543;DHT22;38449;52.696;6.186;2023-06-10T10:18:02;26.80;92.10
52543;DHT22;38449;52.696;6.186;2023-06-10T10:20:32;27.00;91.90
52543;DHT22;38449;52.696;6.186;2023-06-10T10:22:59;27.10;91.50
52543;DHT22;38449;52.696;6.186;2023-06-10T10:25:34;27.00;91.30
52543;DHT22;38449;52.696;6.186;2023-06-10T10:28:11;27.10;90.90
52543;DHT22;38449;52.696;6.186;2023-06-10T10:30:46;27.20;90.90
52543;DHT22;38449;52.696;6.186;2023-06-10T10:33:16;27.40;90.60
52543;DHT22;38449;52.696;6.186;2023-06-10T10:35:46;27.40;90.80
52543;DHT22;38449;52.696;6.186;2023-06-10T10:38:12;27.60;90.60
52543;DHT22;38449;52.696;6.186;2023-06-10T10:40:39;27.40;90.70
52543;DHT22;38449;52.696;6.186;2023-06-10T10:43:06;27.60;90.50
52543;DHT22;38449;52.696;6.186;2023-06-10T10:45:34;27.70;90.60
52543;DHT22;38449;52.696;6.186;2023-06-10T10:48:07;27.50;90.80
52543;DHT22;38449;52.696;6.186;2023-06-10T10:50:36;27.70;90.70
52543;DHT22;38449;52.696;6.186;2023-06-10T10:53:04;27.70;90.50
52543;DHT22;38449;52.696;6.186;2023-06-10T10:55:31;27.70;90.50
52543;DHT22;38449;52.696;6.186;2023-06-10T10:58:06;27.80;90.70
52543;DHT22;38449;52.696;6.186;2023-06-10T11:00:43;28.00;90.80
52543;DHT22;38449;52.696;6.186;2023-06-10T11:03:14;28.00;90.70
52543;DHT22;38449;52.696;6.186;2023-06-10T11:05:47;27.90;90.70
52543;DHT22;38449;52.696;6.186;2023-06-10T11:11:18;27.80;90.40
52543;DHT22;38449;52.696;6.186;2023-06-10T11:16:40;28.10;90.20
52543;DHT22;38449;52.696;6.186;2023-06-10T11:19:10;28.10;90.20
52543;DHT22;38449;52.696;6.186;2023-06-10T11:21:58;28.00;89.70
52543;DHT22;38449;52.696;6.186;2023-06-10T11:24:29;28.10;90.30
52543;DHT22;38449;52.696;6.186;2023-06-10T11:27:14;28.10;89.70
52543;DHT22;38449;52.696;6.186;2023-06-10T11:32:30;28.10;90.20
52543;DHT22;38449;52.696;6.186;2023-06-10T11:35:03;28.20;90.30
52543;DHT22;38449;52.696;6.186;2023-06-10T11:37:29;28.30;89.10
52543;DHT22;38449;52.696;6.186;2023-06-10T11:39:56;28.50;88.90
52543;DHT22;38449;52.696;6.186;2023-06-10T11:42:23;28.40;88.00
52543;DHT22;38449;52.696;6.186;2023-06-10T11:44:50;28.30;87.60
52543;DHT22;38449;52.696;6.186;2023-06-10T11:47:17;28.40;87.90
52543;DHT22;38449;52.696;6.186;2023-06-10T11:49:44;28.60;87.60
52543;DHT22;38449;52.696;6.186;2023-06-10T11:52:11;28.50;86.90
52543;DHT22;38449;52.696;6.186;2023-06-10T11:54:38;28.50;87.00
52543;DHT22;38449;52.696;6.186;2023-06-10T11:57:04;28.70;86.80
52543;DHT22;38449;52.696;6.186;2023-06-10T11:59:31;28.70;85.70
52543;DHT22;38449;52.696;6.186;2023-06-10T12:01:58;28.60;85.80
52543;DHT22;38449;52.696;6.186;2023-06-10T12:04:24;28.60;86.20
52543;DHT22;38449;52.696;6.186;2023-06-10T12:06:53;28.80;85.80
52543;DHT22;38449;52.696;6.186;2023-06-10T12:11:51;29.00;85.00
52543;DHT22;38449;52.696;6.186;2023-06-10T12:17:37;29.10;83.30
52543;DHT22;38449;52.696;6.186;2023-06-10T12:20:09;29.00;83.30
52543;DHT22;38449;52.696;6.186;2023-06-10T12:22:40;28.90;82.90
52543;DHT22;38449;52.696;6.186;2023-06-10T12:25:08;28.90;82.60
52543;DHT22;38449;52.696;6.186;2023-06-10T12:27:35;29.00;82.20
52543;DHT22;38449;52.696;6.186;2023-06-10T12:30:04;29.00;82.40
52543;DHT22;38449;52.696;6.186;2023-06-10T12:32:39;29.20;81.80
52543;DHT22;38449;52.696;6.186;2023-06-10T12:35:06;29.40;79.50
52543;DHT22;38449;52.696;6.186;2023-06-10T12:37:33;29.30;80.10
52543;DHT22;38449;52.696;6.186;2023-06-10T12:40:03;29.40;80.00
52543;DHT22;38449;52.696;6.186;2023-06-10T12:42:30;29.30;79.80
52543;DHT22;38449;52.696;6.186;2023-06-10T12:44:57;29.30;79.10
52543;DHT22;38449;52.696;6.186;2023-06-10T12:47:34;29.30;76.20
52543;DHT22;38449;52.696;6.186;2023-06-10T12:50:07;29.10;75.10
52543;DHT22;38449;52.696;6.186;2023-06-10T12:52:34;29.10;77.30
52543;DHT22;38449;52.696;6.186;2023-06-10T12:55:00;29.20;77.40
52543;DHT22;38449;52.696;6.186;2023-06-10T12:57:27;29.10;76.90
52543;DHT22;38449;52.696;6.186;2023-06-10T12:59:53;29.10;77.40
52543;DHT22;38449;52.696;6.186;2023-06-10T13:02:20;29.20;77.10
52543;DHT22;38449;52.696;6.186;2023-06-10T13:04:46;29.30;76.20
52543;DHT22;38449;52.696;6.186;2023-06-10T13:07:13;29.40;74.90
52543;DHT22;38449;52.696;6.186;2023-06-10T13:09:39;29.50;74.30
52543;DHT22;38449;52.696;6.186;2023-06-10T13:12:06;29.40;74.10
52543;DHT22;38449;52.696;6.186;2023-06-10T13:14:32;29.50;73.60
52543;DHT22;38449;52.696;6.186;2023-06-10T13:16:59;29.50;73.80
52543;DHT22;38449;52.696;6.186;2023-06-10T13:19:25;29.70;72.80
52543;DHT22;38449;52.696;6.186;2023-06-10T13:21:52;29.60;72.70
52543;DHT22;38449;52.696;6.186;2023-06-10T13:24:18;29.70;72.40
52543;DHT22;38449;52.696;6.186;2023-06-10T13:26:46;29.60;72.20
52543;DHT22;38449;52.696;6.186;2023-06-10T13:29:12;29.60;71.10
52543;DHT22;38449;52.696;6.186;2023-06-10T13:31:40;29.60;70.90
52543;DHT22;38449;52.696;6.186;2023-06-10T13:34:06;29.40;71.20
52543;DHT22;38449;52.696;6.186;2023-06-10T13:36:33;29.40;72.10
52543;DHT22;38449;52.696;6.186;2023-06-10T13:38:59;29.30;71.80
52543;DHT22;38449;52.696;6.186;2023-06-10T13:41:25;29.40;72.10
52543;DHT22;38449;52.696;6.186;2023-06-10T13:43:55;29.60;71.80
52543;DHT22;38449;52.696;6.186;2023-06-10T13:46:21;29.60;70.80
52543;DHT22;38449;52.696;6.186;2023-06-10T13:48:48;29.50;70.00
52543;DHT22;38449;52.696;6.186;2023-06-10T13:51:14;29.50;69.80
52543;DHT22;38449;52.696;6.186;2023-06-10T13:53:41;29.50;69.60
52543;DHT22;38449;52.696;6.186;2023-06-10T13:56:07;29.60;68.80
52543;DHT22;38449;52.696;6.186;2023-06-10T13:58:33;29.50;68.60
52543;DHT22;38449;52.696;6.186;2023-06-10T14:01:05;29.50;68.50
52543;DHT22;38449;52.696;6.186;2023-06-10T14:03:32;29.60;68.40
52543;DHT22;38449;52.696;6.186;2023-06-10T14:05:58;29.50;67.90
52543;DHT22;38449;52.696;6.186;2023-06-10T14:08:24;29.60;67.10
52543;DHT22;38449;52.696;6.186;2023-06-10T14:10:51;29.80;67.20
52543;DHT22;38449;52.696;6.186;2023-06-10T14:13:17;29.70;67.20
52543;DHT22;38449;52.696;6.186;2023-06-10T14:15:44;29.90;66.80
52543;DHT22;38449;52.696;6.186;2023-06-10T14:18:11;30.00;66.30
52543;DHT22;38449;52.696;6.186;2023-06-10T14:20:37;30.10;65.80
52543;DHT22;38449;52.696;6.186;2023-06-10T14:23:03;30.00;66.30
52543;DHT22;38449;52.696;6.186;2023-06-10T14:25:30;30.00;66.10
52543;DHT22;38449;52.696;6.186;2023-06-10T14:27:56;29.90;65.30
52543;DHT22;38449;52.696;6.186;2023-06-10T14:30:23;29.90;65.90
52543;DHT22;38449;52.696;6.186;2023-06-10T14:32:50;30.00;66.30
52543;DHT22;38449;52.696;6.186;2023-06-10T14:35:16;30.00;65.20
52543;DHT22;38449;52.696;6.186;2023-06-10T14:37:42;30.20;64.80
52543;DHT22;38449;52.696;6.186;2023-06-10T14:40:09;30.20;63.50
52543;DHT22;38449;52.696;6.186;2023-06-10T14:42:35;30.20;62.40
52543;DHT22;38449;52.696;6.186;2023-06-10T14:45:01;30.10;61.70
52543;DHT22;38449;52.696;6.186;2023-06-10T14:47:28;30.10;62.90
52543;DHT22;38449;52.696;6.186;2023-06-10T14:49:54;30.10;62.40
52543;DHT22;38449;52.696;6.186;2023-06-10T14:52:20;30.10;62.20
52543;DHT22;38449;52.696;6.186;2023-06-10T14:54:47;30.20;62.40
52543;DHT22;38449;52.696;6.186;2023-06-10T14:57:13;30.30;61.20
52543;DHT22;38449;52.696;6.186;2023-06-10T14:59:39;30.20;61.40
52543;DHT22;38449;52.696;6.186;2023-06-10T15:02:06;30.10;62.00
52543;DHT22;38449;52.696;6.186;2023-06-10T15:04:32;30.00;61.80
52543;DHT22;38449;52.696;6.186;2023-06-10T15:06:59;30.10;62.20
52543;DHT22;38449;52.696;6.186;2023-06-10T15:09:25;30.00;62.20
52543;DHT22;38449;52.696;6.186;2023-06-10T15:11:51;29.80;62.60
52543;DHT22;38449;52.696;6.186;2023-06-10T15:14:18;29.80;63.30
52543;DHT22;38449;52.696;6.186;2023-06-10T15:16:44;29.90;63.60
52543;DHT22;38449;52.696;6.186;2023-06-10T15:19:10;29.90;63.40
52543;DHT22;38449;52.696;6.186;2023-06-10T15:21:36;29.90;63.90
52543;DHT22;38449;52.696;6.186;2023-06-10T15:24:03;29.80;61.50
52543;DHT22;38449;52.696;6.186;2023-06-10T15:26:29;29.70;61.50
52543;DHT22;38449;52.696;6.186;2023-06-10T15:28:56;29.80;61.00
52543;DHT22;38449;52.696;6.186;2023-06-10T15:31:22;29.70;60.30
52543;DHT22;38449;52.696;6.186;2023-06-10T15:33:48;29.80;60.60
52543;DHT22;38449;52.696;6.186;2023-06-10T15:36:15;29.80;61.00
52543;DHT22;38449;52.696;6.186;2023-06-10T15:38:41;29.80;60.90
52543;DHT22;38449;52.696;6.186;2023-06-10T15:41:07;29.80;59.50
52543;DHT22;38449;52.696;6.186;2023-06-10T15:43:33;29.90;60.40
52543;DHT22;38449;52.696;6.186;2023-06-10T15:46:00;29.90;60.20
52543;DHT22;38449;52.696;6.186;2023-06-10T15:48:26;29.80;60.10
52543;DHT22;38449;52.696;6.186;2023-06-10T15:50:54;29.90;60.80